createdAt,value
2018-12-31T00:01:11.471Z,14.87
2018-12-31T00:03:41.175Z,13.67
2018-12-31T00:06:10.367Z,13.97
2018-12-31T00:08:39.800Z,14.23
2018-12-31T00:11:09.178Z,14.90
2018-12-31T00:13:38.714Z,15.63
2018-12-31T00:16:07.538Z,14.30
2018-12-31T00:18:36.408Z,14.57
2018-12-31T00:21:06.086Z,14.40
2018-12-31T00:23:35.567Z,15.60
2018-12-31T00:26:04.800Z,15.50
2018-12-31T00:28:33.798Z,13.97
2018-12-31T00:31:03.227Z,15.23
2018-12-31T00:33:32.596Z,15.17
2018-12-31T00:36:01.942Z,15.60
2018-12-31T00:38:31.071Z,14.73
2018-12-31T00:41:01.105Z,15.00
2018-12-31T00:43:30.526Z,16.60
2018-12-31T00:45:59.908Z,16.00
2018-12-31T00:48:29.584Z,16.00
2018-12-31T00:50:59.673Z,16.70
2018-12-31T00:53:29.371Z,15.47
2018-12-31T00:55:58.667Z,16.67
2018-12-31T00:58:27.807Z,15.83
2018-12-31T01:00:57.155Z,17.83
2018-12-31T01:03:26.247Z,18.20
2018-12-31T01:05:55.086Z,18.00
2018-12-31T01:08:24.555Z,17.63
2018-12-31T01:10:54.180Z,17.67
2018-12-31T01:13:23.971Z,16.57
2018-12-31T01:15:53.743Z,17.87
2018-12-31T01:18:23.120Z,18.60
2018-12-31T01:20:52.467Z,16.63
2018-12-31T01:23:21.947Z,19.20
2018-12-31T01:25:51.324Z,17.20
2018-12-31T01:28:20.685Z,17.57
2018-12-31T01:30:49.612Z,16.50
2018-12-31T01:33:18.526Z,19.10
2018-12-31T01:35:47.410Z,18.43
2018-12-31T01:38:16.666Z,18.63
2018-12-31T01:40:45.603Z,18.27
2018-12-31T01:43:14.974Z,17.83
2018-12-31T01:45:44.164Z,17.70
2018-12-31T01:48:13.575Z,17.30
2018-12-31T01:50:43.391Z,19.17
2018-12-31T01:53:12.511Z,18.53
2018-12-31T01:55:41.725Z,19.03
2018-12-31T01:58:10.802Z,19.27
2018-12-31T02:00:39.712Z,18.70
2018-12-31T02:03:09.136Z,19.37
2018-12-31T02:05:38.338Z,18.90
2018-12-31T02:08:07.809Z,17.40
2018-12-31T02:10:36.979Z,18.17
2018-12-31T02:13:06.218Z,18.43
2018-12-31T02:15:35.088Z,18.67
2018-12-31T02:18:04.067Z,18.40
2018-12-31T02:20:33.243Z,17.90
2018-12-31T02:23:02.423Z,17.97
2018-12-31T02:25:31.759Z,18.73
2018-12-31T02:28:00.676Z,17.87
2018-12-31T02:30:29.884Z,18.30
2018-12-31T02:32:59.859Z,18.67
2018-12-31T02:35:28.694Z,16.40
2018-12-31T02:37:57.875Z,19.83
2018-12-31T02:40:27.474Z,17.13
2018-12-31T02:42:56.904Z,17.80
2018-12-31T02:45:26.188Z,17.70
2018-12-31T02:47:56.626Z,17.43
2018-12-31T02:50:26.072Z,19.10
2018-12-31T02:52:55.420Z,19.37
2018-12-31T02:55:24.772Z,19.47
2018-12-31T02:57:53.600Z,18.80
2018-12-31T03:00:23.630Z,19.70
2018-12-31T03:02:52.795Z,21.20
2018-12-31T03:05:21.749Z,21.33
2018-12-31T03:07:50.638Z,19.50
2018-12-31T03:10:19.621Z,22.13
2018-12-31T03:12:48.754Z,20.03
2018-12-31T03:15:18.100Z,21.87
2018-12-31T03:17:47.168Z,19.60
2018-12-31T03:20:16.324Z,20.37
2018-12-31T03:22:45.237Z,19.20
2018-12-31T03:25:14.428Z,21.77
2018-12-31T03:27:43.283Z,21.17
2018-12-31T03:30:12.197Z,19.33
2018-12-31T03:32:41.333Z,21.23
2018-12-31T03:35:10.617Z,20.80
2018-12-31T03:37:39.429Z,20.83
2018-12-31T03:40:08.416Z,20.50
2018-12-31T03:42:37.341Z,21.80
2018-12-31T03:45:07.431Z,21.43
2018-12-31T03:47:36.678Z,20.17
2018-12-31T03:50:06.775Z,21.03
2018-12-31T03:52:36.019Z,23.37
2018-12-31T03:55:05.420Z,22.53
2018-12-31T03:57:34.602Z,22.00
2018-12-31T04:00:03.787Z,20.73
2018-12-31T04:02:32.607Z,21.90
2018-12-31T04:05:02.019Z,21.90
2018-12-31T04:07:31.214Z,20.73
2018-12-31T04:10:00.331Z,22.47
2018-12-31T04:12:29.246Z,21.50
2018-12-31T04:14:58.101Z,22.30
2018-12-31T04:17:27.235Z,22.93
2018-12-31T04:19:56.378Z,21.77
2018-12-31T04:22:25.828Z,23.17
2018-12-31T04:24:54.922Z,21.97
2018-12-31T04:27:24.095Z,20.20
2018-12-31T04:29:53.204Z,21.20
2018-12-31T04:32:22.620Z,21.13
2018-12-31T04:34:51.727Z,23.23
2018-12-31T04:37:20.548Z,21.13
2018-12-31T04:39:49.464Z,20.10
2018-12-31T04:42:18.842Z,20.20
2018-12-31T04:44:47.659Z,21.07
2018-12-31T04:47:17.048Z,20.57
2018-12-31T04:49:46.402Z,19.63
2018-12-31T04:52:15.214Z,20.43
2018-12-31T04:54:44.334Z,22.47
2018-12-31T04:57:13.423Z,22.20
2018-12-31T04:59:42.239Z,21.37
2018-12-31T05:02:11.381Z,20.87
2018-12-31T05:04:40.182Z,22.60
2018-12-31T05:07:09.430Z,19.83
2018-12-31T05:09:38.500Z,21.17
2018-12-31T05:12:07.679Z,19.77
2018-12-31T05:14:36.627Z,18.60
2018-12-31T05:17:05.481Z,20.13
2018-12-31T05:19:34.357Z,20.97
2018-12-31T05:22:03.340Z,20.50
2018-12-31T05:24:32.454Z,20.47
2018-12-31T05:27:01.554Z,19.83
2018-12-31T05:29:30.893Z,19.43
2018-12-31T05:31:59.700Z,20.00
2018-12-31T05:34:28.838Z,19.70
2018-12-31T05:36:57.655Z,19.27
2018-12-31T05:39:26.782Z,19.30
2018-12-31T05:41:55.660Z,18.97
2018-12-31T05:44:24.763Z,19.53
2018-12-31T05:46:53.854Z,18.93
2018-12-31T05:49:22.939Z,20.43
2018-12-31T05:51:52.352Z,18.67
2018-12-31T05:54:21.515Z,19.70
2018-12-31T05:56:50.610Z,17.73
2018-12-31T05:59:19.696Z,16.20
2018-12-31T06:01:48.515Z,19.33
2018-12-31T06:04:17.896Z,17.17
2018-12-31T06:06:47.071Z,18.67
2018-12-31T06:09:16.146Z,17.60
2018-12-31T06:11:45.278Z,17.97
2018-12-31T06:14:14.382Z,18.73
2018-12-31T06:16:43.180Z,17.30
2018-12-31T06:19:12.610Z,18.23
2018-12-31T06:21:41.805Z,18.33
2018-12-31T06:24:10.883Z,18.50
2018-12-31T06:26:40.251Z,19.30
2018-12-31T06:29:09.056Z,17.27
2018-12-31T06:31:38.194Z,17.70
2018-12-31T06:34:07.078Z,16.57
2018-12-31T06:36:36.455Z,17.03
2018-12-31T06:39:08.326Z,17.23
2018-12-31T06:41:38.258Z,17.13
2018-12-31T06:44:07.151Z,16.47
2018-12-31T06:46:36.275Z,15.57
2018-12-31T06:49:05.439Z,15.33
2018-12-31T06:51:34.324Z,15.80
2018-12-31T06:54:03.187Z,15.33
2018-12-31T06:56:32.386Z,16.87
2018-12-31T06:59:01.747Z,14.27
2018-12-31T07:01:30.627Z,14.13
2018-12-31T07:04:00.291Z,15.23
2018-12-31T07:06:29.415Z,14.50
2018-12-31T07:08:58.776Z,13.33
2018-12-31T07:11:28.115Z,13.20
2018-12-31T07:13:57.307Z,15.33
2018-12-31T07:16:26.729Z,15.67
2018-12-31T07:18:55.953Z,14.33
2018-12-31T07:21:25.064Z,15.20
2018-12-31T07:23:54.309Z,15.90
2018-12-31T07:26:23.391Z,15.97
2018-12-31T07:28:52.195Z,15.77
2018-12-31T07:31:21.344Z,16.40
2018-12-31T07:33:50.457Z,16.30
2018-12-31T07:36:19.796Z,15.70
2018-12-31T07:38:49.477Z,15.80
2018-12-31T07:41:18.558Z,15.13
2018-12-31T07:43:47.733Z,13.87
2018-12-31T07:46:17.075Z,14.27
2018-12-31T07:48:46.560Z,12.93
2018-12-31T07:51:15.895Z,12.70
2018-12-31T07:53:44.702Z,13.93
2018-12-31T07:56:14.091Z,12.37
2018-12-31T07:58:43.519Z,13.47
2018-12-31T08:01:12.719Z,15.23
2018-12-31T08:03:41.548Z,12.30
2018-12-31T08:06:10.959Z,12.07
2018-12-31T08:08:40.361Z,13.80
2018-12-31T08:11:10.248Z,12.50
2018-12-31T08:13:39.192Z,13.60
2018-12-31T08:16:08.727Z,12.07
2018-12-31T08:18:38.351Z,11.93
2018-12-31T08:21:07.439Z,13.20
2018-12-31T08:23:36.631Z,12.50
2018-12-31T08:26:05.983Z,12.73
2018-12-31T08:28:35.114Z,12.63
2018-12-31T08:31:04.429Z,12.63
2018-12-31T08:33:33.608Z,13.37
2018-12-31T08:36:02.982Z,12.57
2018-12-31T08:38:31.817Z,13.37
2018-12-31T08:41:01.451Z,11.63
2018-12-31T08:43:31.070Z,11.33
2018-12-31T08:46:00.159Z,12.57
2018-12-31T08:48:29.278Z,11.47
2018-12-31T08:50:58.378Z,12.67
2018-12-31T08:53:27.863Z,11.33
2018-12-31T08:55:57.251Z,11.93
2018-12-31T08:58:26.623Z,13.47
2018-12-31T09:00:55.707Z,13.53
2018-12-31T09:03:25.335Z,13.60
2018-12-31T09:05:54.683Z,12.33
2018-12-31T09:08:24.107Z,12.97
2018-12-31T09:10:53.274Z,12.23
2018-12-31T09:13:22.487Z,12.47
2018-12-31T09:15:52.095Z,12.93
2018-12-31T09:18:21.476Z,12.33
2018-12-31T09:20:51.237Z,13.07
2018-12-31T09:23:20.371Z,13.00
2018-12-31T09:25:49.467Z,13.30
2018-12-31T09:28:18.539Z,14.00
2018-12-31T09:30:47.639Z,12.07
2018-12-31T09:33:16.738Z,12.67
2018-12-31T09:35:46.426Z,11.70
2018-12-31T09:38:15.282Z,11.23
2018-12-31T09:40:44.916Z,12.60
2018-12-31T09:43:14.098Z,11.17
2018-12-31T09:45:43.199Z,11.27
2018-12-31T09:48:12.390Z,12.13
2018-12-31T09:50:41.731Z,12.07
2018-12-31T09:53:12.603Z,11.47
2018-12-31T09:55:41.895Z,11.20
2018-12-31T09:58:11.032Z,11.43
2018-12-31T10:00:40.119Z,10.90
2018-12-31T10:03:09.234Z,10.73
2018-12-31T10:05:38.407Z,11.07
2018-12-31T10:08:07.806Z,11.87
2018-12-31T10:10:37.215Z,11.13
2018-12-31T10:13:06.826Z,10.70
2018-12-31T10:15:36.439Z,11.20
2018-12-31T10:18:05.577Z,10.90
2018-12-31T10:20:34.408Z,10.67
2018-12-31T10:23:03.620Z,9.57
2018-12-31T10:25:32.765Z,9.97
2018-12-31T10:28:01.561Z,10.53
2018-12-31T10:30:30.817Z,10.77
2018-12-31T10:32:59.923Z,10.80
2018-12-31T10:35:29.566Z,8.90
2018-12-31T10:37:58.655Z,8.10
2018-12-31T10:40:28.106Z,10.23
2018-12-31T10:42:57.479Z,9.20
2018-12-31T10:45:26.830Z,9.83
2018-12-31T10:47:56.167Z,9.47
2018-12-31T10:50:25.239Z,8.63
2018-12-31T10:52:55.107Z,9.40
2018-12-31T10:55:24.247Z,8.97
2018-12-31T10:57:53.086Z,10.07
2018-12-31T11:00:22.576Z,8.37
2018-12-31T11:02:51.939Z,9.77
2018-12-31T11:05:20.830Z,8.70
2018-12-31T11:07:50.224Z,8.80
2018-12-31T11:10:19.340Z,8.60
2018-12-31T11:12:48.487Z,9.73
2018-12-31T11:15:17.622Z,9.63
2018-12-31T11:17:46.797Z,9.83
2018-12-31T11:20:15.987Z,9.97
2018-12-31T11:22:45.391Z,8.83
2018-12-31T11:25:14.526Z,8.67
2018-12-31T11:27:43.862Z,8.87
2018-12-31T11:30:13.279Z,8.67
2018-12-31T11:32:42.375Z,9.20
2018-12-31T11:35:11.663Z,9.13
2018-12-31T11:37:40.470Z,8.77
2018-12-31T11:40:09.626Z,9.53
2018-12-31T11:42:38.694Z,8.80
2018-12-31T11:45:08.039Z,8.57
2018-12-31T11:47:37.407Z,7.53
2018-12-31T11:50:06.783Z,7.73
2018-12-31T11:52:36.139Z,8.27
2018-12-31T11:55:05.401Z,7.97
2018-12-31T11:57:34.540Z,7.77
2018-12-31T12:00:04.755Z,7.70
2018-12-31T12:02:33.865Z,8.63
2018-12-31T12:05:03.018Z,8.47
2018-12-31T12:07:31.841Z,8.53
2018-12-31T12:10:00.721Z,8.47
2018-12-31T12:12:29.586Z,8.17
2018-12-31T12:14:59.009Z,8.07
2018-12-31T12:17:28.711Z,8.67
2018-12-31T12:19:57.795Z,8.17
2018-12-31T12:22:27.160Z,7.63
2018-12-31T12:24:56.519Z,8.47
2018-12-31T12:27:26.139Z,9.07
2018-12-31T12:29:55.474Z,8.27
2018-12-31T12:32:24.660Z,7.90
2018-12-31T12:34:54.762Z,8.13
2018-12-31T12:37:24.467Z,7.53
2018-12-31T12:39:53.846Z,8.07
2018-12-31T12:42:23.208Z,9.33
2018-12-31T12:44:52.560Z,8.10
2018-12-31T12:47:22.107Z,8.90
2018-12-31T12:49:51.207Z,10.17
2018-12-31T12:52:20.316Z,8.13
2018-12-31T12:54:49.752Z,9.20
2018-12-31T12:57:18.929Z,9.03
2018-12-31T12:59:48.199Z,8.87
2018-12-31T13:02:17.647Z,9.30
2018-12-31T13:04:47.099Z,8.03
2018-12-31T13:07:16.218Z,9.43
2018-12-31T13:09:45.381Z,9.00
2018-12-31T13:12:14.213Z,9.83
2018-12-31T13:14:43.346Z,10.03
2018-12-31T13:17:12.459Z,9.33
2018-12-31T13:19:41.834Z,10.37
2018-12-31T13:22:10.694Z,9.40
2018-12-31T13:24:40.114Z,10.67
2018-12-31T13:27:08.943Z,10.30
2018-12-31T13:29:38.322Z,10.53
2018-12-31T13:32:07.146Z,10.60
2018-12-31T13:34:36.002Z,10.93
2018-12-31T13:37:05.241Z,10.17
2018-12-31T13:39:34.044Z,10.10
2018-12-31T13:42:03.548Z,10.47
2018-12-31T13:44:32.639Z,9.90
2018-12-31T13:47:02.047Z,9.00
2018-12-31T13:49:31.520Z,9.37
2018-12-31T13:52:01.361Z,9.33
2018-12-31T13:54:30.628Z,8.80
2018-12-31T13:56:59.824Z,8.73
2018-12-31T13:59:30.652Z,9.23
2018-12-31T14:02:00.191Z,9.23
2018-12-31T14:04:30.740Z,9.00
2018-12-31T14:07:00.239Z,8.23
2018-12-31T14:09:29.406Z,8.13
2018-12-31T14:11:58.779Z,8.63
2018-12-31T14:14:27.874Z,9.13
2018-12-31T14:16:56.968Z,7.93
2018-12-31T14:19:25.810Z,8.33
2018-12-31T14:21:54.894Z,6.97
2018-12-31T14:24:24.243Z,8.10
2018-12-31T14:27:00.361Z,7.10
2018-12-31T14:29:24.678Z,7.80
2018-12-31T14:31:53.544Z,7.97
2018-12-31T14:34:22.779Z,7.77
2018-12-31T14:36:52.175Z,7.70
2018-12-31T14:39:21.260Z,8.13
2018-12-31T14:41:50.603Z,8.63
2018-12-31T14:44:19.663Z,8.13
2018-12-31T14:46:48.807Z,8.13
2018-12-31T14:49:17.910Z,8.60
2018-12-31T14:51:47.255Z,8.10
2018-12-31T14:54:16.388Z,8.80
2018-12-31T14:56:46.169Z,7.63
2018-12-31T14:59:15.482Z,8.00
2018-12-31T15:01:44.563Z,8.43
2018-12-31T15:04:13.991Z,8.87
2018-12-31T15:06:43.091Z,8.27
2018-12-31T15:09:12.644Z,9.03
2018-12-31T15:11:42.211Z,9.13
2018-12-31T15:14:11.551Z,9.80
2018-12-31T15:16:41.223Z,9.33
2018-12-31T15:19:10.843Z,9.10
2018-12-31T15:21:40.327Z,9.77
2018-12-31T15:24:09.813Z,10.33
2018-12-31T15:26:38.694Z,9.67
2018-12-31T15:29:07.862Z,10.53
2018-12-31T15:31:36.803Z,10.20
2018-12-31T15:34:06.151Z,10.87
2018-12-31T15:36:36.280Z,10.53
2018-12-31T15:39:07.127Z,10.83
2018-12-31T15:41:36.519Z,11.43
2018-12-31T15:44:05.728Z,12.03
2018-12-31T15:46:34.593Z,12.63
2018-12-31T15:49:03.423Z,12.17
2018-12-31T15:51:32.561Z,12.07
2018-12-31T15:54:01.674Z,13.53
2018-12-31T15:56:31.027Z,13.63
2018-12-31T15:59:00.647Z,13.17
2018-12-31T16:01:30.922Z,15.13
2018-12-31T16:03:59.999Z,17.43
2018-12-31T16:06:29.693Z,17.43
2018-12-31T16:08:58.490Z,14.33
2018-12-31T16:11:27.647Z,15.47
2018-12-31T16:13:56.717Z,37.50
2018-12-31T16:16:25.602Z,17.00
2018-12-31T16:18:55.226Z,16.33
2018-12-31T16:21:24.494Z,15.63
2018-12-31T16:23:53.594Z,16.60
2018-12-31T16:26:22.724Z,15.47
2018-12-31T16:28:52.296Z,15.70
2018-12-31T16:31:21.175Z,17.17
2018-12-31T16:33:50.396Z,16.83
2018-12-31T16:36:19.535Z,18.43
2018-12-31T16:38:49.141Z,17.83
2018-12-31T16:41:18.231Z,23.40
2018-12-31T16:43:48.398Z,207.57
2018-12-31T16:46:17.483Z,26.13
2018-12-31T16:48:46.855Z,22.30
2018-12-31T16:51:15.918Z,19.10
2018-12-31T16:53:45.322Z,22.07
2018-12-31T16:56:14.737Z,20.47
2018-12-31T16:58:44.190Z,21.30
2018-12-31T17:01:13.782Z,20.30
2018-12-31T17:03:42.874Z,20.63
2018-12-31T17:06:11.954Z,20.27
2018-12-31T17:08:41.302Z,21.77
2018-12-31T17:11:10.634Z,21.53
2018-12-31T17:13:39.734Z,21.10
2018-12-31T17:16:09.062Z,22.13
2018-12-31T17:18:38.415Z,24.00
2018-12-31T17:21:07.839Z,25.47
2018-12-31T17:23:37.538Z,24.67
2018-12-31T17:26:06.924Z,24.37
2018-12-31T17:28:35.737Z,23.33
2018-12-31T17:31:05.119Z,25.07
2018-12-31T17:33:34.230Z,25.33
2018-12-31T17:36:03.172Z,23.87
2018-12-31T17:38:32.979Z,25.70
2018-12-31T17:41:02.391Z,25.00
2018-12-31T17:43:31.754Z,25.10
2018-12-31T17:46:01.606Z,27.07
2018-12-31T17:48:30.979Z,26.30
2018-12-31T17:51:00.059Z,25.83
2018-12-31T17:53:28.933Z,25.40
2018-12-31T17:55:58.054Z,26.47
2018-12-31T17:58:27.218Z,28.67
2018-12-31T18:00:56.370Z,26.10
2018-12-31T18:03:25.758Z,24.97
2018-12-31T18:05:54.832Z,25.23
2018-12-31T18:08:24.554Z,25.17
2018-12-31T18:10:54.139Z,25.30
2018-12-31T18:13:23.223Z,25.97
2018-12-31T18:15:52.643Z,26.17
2018-12-31T18:18:21.779Z,24.17
2018-12-31T18:20:50.881Z,26.33
2018-12-31T18:23:19.962Z,25.77
2018-12-31T18:25:50.003Z,25.80
2018-12-31T18:28:18.791Z,26.37
2018-12-31T18:30:48.257Z,24.83
2018-12-31T18:33:17.058Z,24.70
2018-12-31T18:35:46.218Z,26.40
2018-12-31T18:38:15.292Z,24.90
2018-12-31T18:40:44.766Z,26.43
2018-12-31T18:43:14.215Z,25.83
2018-12-31T18:45:43.715Z,25.23
2018-12-31T18:48:13.140Z,27.27
2018-12-31T18:50:42.763Z,27.07
2018-12-31T18:53:11.864Z,27.60
2018-12-31T18:55:40.992Z,29.43
2018-12-31T18:58:09.919Z,26.97
2018-12-31T19:00:39.444Z,28.30
2018-12-31T19:03:09.352Z,27.03
2018-12-31T19:05:38.529Z,25.43
2018-12-31T19:08:07.644Z,26.63
2018-12-31T19:10:37.054Z,28.73
2018-12-31T19:13:06.234Z,29.70
2018-12-31T19:15:37.815Z,25.20
2018-12-31T19:18:07.176Z,25.70
2018-12-31T19:20:36.156Z,26.67
2018-12-31T19:23:05.526Z,26.47
2018-12-31T19:25:34.954Z,27.17
2018-12-31T19:28:04.234Z,26.93
2018-12-31T19:30:33.223Z,25.20
2018-12-31T19:33:02.375Z,26.50
2018-12-31T19:35:31.618Z,27.47
2018-12-31T19:38:00.695Z,27.33
2018-12-31T19:40:29.911Z,27.50
2018-12-31T19:42:59.082Z,32.43
2018-12-31T19:45:28.195Z,34.97
2018-12-31T19:47:57.459Z,27.77
2018-12-31T19:50:26.569Z,26.83
2018-12-31T19:52:55.919Z,26.00
2018-12-31T19:55:25.089Z,31.87
2018-12-31T19:57:54.459Z,29.07
2018-12-31T20:00:23.660Z,28.00
2018-12-31T20:02:53.004Z,28.03
2018-12-31T20:05:22.058Z,25.93
2018-12-31T20:07:50.974Z,27.87
2018-12-31T20:10:20.242Z,26.80
2018-12-31T20:12:49.360Z,27.20
2018-12-31T20:15:18.576Z,26.33
2018-12-31T20:17:49.371Z,29.13
2018-12-31T20:20:18.783Z,27.70
2018-12-31T20:22:48.278Z,27.77
2018-12-31T20:25:17.499Z,27.53
2018-12-31T20:27:46.744Z,28.30
2018-12-31T20:30:16.103Z,25.93
2018-12-31T20:32:45.275Z,27.17
2018-12-31T20:35:14.634Z,26.40
2018-12-31T20:37:44.022Z,28.00
2018-12-31T20:40:13.108Z,28.03
2018-12-31T20:42:42.303Z,28.33
2018-12-31T20:45:11.393Z,26.93
2018-12-31T20:47:40.495Z,27.27
2018-12-31T20:50:09.722Z,30.27
2018-12-31T20:52:38.605Z,29.13
2018-12-31T20:55:07.520Z,27.73
2018-12-31T20:57:36.658Z,30.87
2018-12-31T21:00:06.459Z,27.77
2018-12-31T21:02:35.998Z,28.63
2018-12-31T21:05:05.491Z,28.00
2018-12-31T21:07:34.367Z,29.13
2018-12-31T21:10:03.687Z,30.97
2018-12-31T21:12:32.576Z,31.03
2018-12-31T21:15:01.643Z,31.07
2018-12-31T21:17:30.778Z,31.27
2018-12-31T21:20:00.228Z,30.20
2018-12-31T21:22:29.172Z,29.33
2018-12-31T21:24:58.374Z,30.03
2018-12-31T21:27:27.787Z,30.40
2018-12-31T21:29:57.134Z,32.20
2018-12-31T21:32:26.571Z,30.60
2018-12-31T21:34:55.987Z,31.13
2018-12-31T21:37:25.159Z,29.40
2018-12-31T21:39:54.259Z,34.90
2018-12-31T21:42:23.691Z,29.73
2018-12-31T21:44:52.868Z,29.37
2018-12-31T21:47:22.039Z,30.10
2018-12-31T21:49:51.287Z,32.87
2018-12-31T21:52:20.724Z,30.23
2018-12-31T21:54:50.354Z,31.97
2018-12-31T21:57:19.702Z,29.90
2018-12-31T21:59:48.875Z,29.10
2018-12-31T22:02:17.773Z,34.17
2018-12-31T22:04:46.906Z,33.27
2018-12-31T22:07:15.708Z,33.67
2018-12-31T22:09:45.115Z,32.93
2018-12-31T22:12:14.366Z,32.97
2018-12-31T22:14:43.259Z,32.63
2018-12-31T22:17:12.180Z,31.80
2018-12-31T22:19:41.494Z,32.23
2018-12-31T22:22:10.701Z,31.23
2018-12-31T22:24:39.862Z,33.00
2018-12-31T22:27:08.962Z,31.73
2018-12-31T22:29:37.856Z,31.67
2018-12-31T22:32:07.071Z,32.93
2018-12-31T22:34:36.456Z,35.07
2018-12-31T22:37:05.892Z,33.10
2018-12-31T22:39:34.724Z,33.43
2018-12-31T22:42:04.118Z,33.43
2018-12-31T22:44:33.951Z,33.50
2018-12-31T22:47:03.295Z,31.57
2018-12-31T22:49:32.650Z,30.37
2018-12-31T22:52:01.835Z,33.20
2018-12-31T22:54:30.931Z,33.07
2018-12-31T22:57:00.739Z,31.47
2018-12-31T22:59:31.869Z,30.60
2018-12-31T23:02:01.226Z,31.30
2018-12-31T23:07:22.316Z,178.63
2018-12-31T23:09:51.755Z,309.80
2018-12-31T23:12:21.760Z,414.27
2018-12-31T23:14:51.032Z,622.93
2018-12-31T23:17:20.899Z,971.30
2018-12-31T23:19:49.824Z,514.77
2018-12-31T23:22:18.966Z,177.17
2018-12-31T23:24:48.104Z,91.40
2018-12-31T23:27:17.273Z,106.57
2018-12-31T23:29:46.646Z,123.87
2018-12-31T23:32:15.738Z,88.20
2018-12-31T23:34:44.846Z,46.03
2018-12-31T23:37:14.206Z,43.83
2018-12-31T23:39:43.326Z,36.33
2018-12-31T23:42:12.635Z,41.27
2018-12-31T23:44:42.002Z,37.90
2018-12-31T23:47:10.858Z,41.67
2018-12-31T23:49:39.954Z,41.70
2018-12-31T23:52:09.071Z,46.80
2018-12-31T23:54:38.281Z,50.20
2018-12-31T23:57:07.637Z,53.57
2018-12-31T23:59:36.727Z,57.03
